Time;durP1;ratioP1;P1;durP2;ratioP2;P2;SDS_P1;SDS_P2;PMS_P1;PMS_P2;Temp;Humidity;BMP_temperature;BMP_pressure;BME280_temperature;BME280_humidity;BME280_pressure;Samples;Min_cycle;Max_cycle;Signal;HPM_P1;HPM_P2
2023/03/22 00:02:22;;;;;;;;;;;;;;;;;;5074165;28;7216;-48
2023/03/22 00:04:48;;;;;;;;;;;;;;;;;;5074372;28;7480;-48
2023/03/22 00:07:16;;;;;;;;;;;;;;;;;;5074033;28;7083;-45
2023/03/22 00:09:42;;;;;;;;;;;;;;;;;;5074263;28;7075;-49
2023/03/22 00:12:08;;;;;;;;;;;;;;;;;;5074544;28;7140;-48
2023/03/22 00:17:51;;;;;;;;;;;;;;;;;;5058137;28;6734;-48
2023/03/22 00:20:18;;;;;;;;;;;;;;;;;;5057489;28;7247;-49
2023/03/22 00:22:46;;;;;;;;;;;;;;;;;;5057313;28;7104;-49
2023/03/22 00:25:11;;;;;;;;;;;;;;;;;;5057159;28;6966;-50
2023/03/22 00:27:48;;;;;;;;;;;;;;;;;;5057269;28;7090;-47
2023/03/22 00:30:14;;;;;;;;;;;;;;;;;;5057516;28;7195;-48
2023/03/22 00:35:56;;;;;;;;;;;;;;;;;;5057203;28;6688;-48
2023/03/22 00:38:21;;;;;;;;;;;;;;;;;;5056956;28;6955;-47
2023/03/22 00:40:47;;;;;;;;;;;;;;;;;;5057283;28;7055;-49
2023/03/22 00:43:14;;;;;;;;;;;;;;;;;;5056978;28;7533;-50
2023/03/22 00:45:40;;;;;;;;;;;;;;;;;;5057282;28;7166;-51
2023/03/22 00:48:12;;;;;;;;;;;;;;;;;;5057283;28;7122;-47
2023/03/22 00:50:38;;;;;;;;;;;;;;;;;;5056657;28;6905;-46
2023/03/22 00:53:04;;;;;;;;;;;;;;;;;;5057339;28;7402;-47
2023/03/22 00:55:30;;;;;;;;;;;;;;;;;;5056566;28;7224;-48
2023/03/22 00:57:57;;;;;;;;;;;;;;;;;;5056980;28;7171;-46
2023/03/22 01:00:23;;;;;;;;;;;;;;;;;;5056999;28;7055;-46
2023/03/22 01:05:55;;;;;;;;;;;;;;;;;;5056579;28;6745;-50
2023/03/22 01:08:39;;;;;;;;;;;;;;;;;;5056580;28;7165;-45
2023/03/22 01:11:07;;;;;;;;;;;;;;;;;;5056804;28;6898;-48
2023/03/22 01:13:33;;;;;;;;;;;;;;;;;;5056361;28;7109;-46
2023/03/22 01:15:59;;;;;;;;;;;;;;;;;;5061616;28;7411;-48
2023/03/22 01:18:26;;;;;;;;;;;;;;;;;;5076313;28;7046;-48
2023/03/22 01:20:52;;;;;;;;;;;;;;;;;;5076654;28;7179;-49
2023/03/22 01:23:18;;;;;;;;;;;;;;;;;;5076582;28;7087;-49
2023/03/22 01:25:44;;;;;;;;;;;;;;;;;;5076553;28;6954;-50
2023/03/22 01:31:01;;;;;;;;;;;;;;;;;;5076419;28;6910;-53
2023/03/22 01:33:36;;;;;;;;;;;;;;;;;;5076381;28;7046;-49
2023/03/22 01:36:02;;;;;;;;;;;;;;;;;;5076318;28;6951;-48
2023/03/22 01:38:28;;;;;;;;;;;;;;;;;;5076104;28;7377;-49
2023/03/22 01:40:53;;;;;;;;;;;;;;;;;;5076395;28;7579;-50
2023/03/22 01:43:19;;;;;;;;;;;;;;;;;;5076484;28;6812;-47
2023/03/22 01:46:07;;;;;;;;;;;;;;;;;;5076472;28;7467;-50
2023/03/22 01:48:37;;;;;;;;;;;;;;;;;;5075606;28;7203;-48
2023/03/22 01:51:20;;;;;;;;;;;;;;;;;;5058085;28;8782;-48
2023/03/22 01:53:49;;;;;;;;;;;;;;;;;;5076240;28;7052;-50
2023/03/22 01:56:20;;;;;;;;;;;;;;;;;;5076431;28;7275;-48
2023/03/22 01:58:47;;;;;;;;;;;;;;;;;;5075948;28;7177;-50
2023/03/22 02:01:50;;;;;;;;;;;;;;;;;;5069797;28;7205;-51
2023/03/22 02:04:19;;;;;;;;;;;;;;;;;;5054640;28;6982;-50
2023/03/22 02:07:02;;;;;;;;;;;;;;;;;;5056214;28;7171;-51
2023/03/22 02:09:29;;;;;;;;;;;;;;;;;;5055671;28;6842;-49
2023/03/22 02:12:08;;;;;;;;;;;;;;;;;;5055593;28;7128;-49
2023/03/22 02:17:43;;;;;;;;;;;;;;;;;;5053854;28;6786;-51
2023/03/22 02:20:18;;;;;;;;;;;;;;;;;;5055606;28;7124;-52
2023/03/22 02:22:43;;;;;;;;;;;;;;;;;;5056318;28;7132;-51
2023/03/22 02:25:27;;;;;;;;;;;;;;;;;;5055311;28;7028;-51
2023/03/22 02:28:15;;;;;;;;;;;;;;;;;;5055677;28;7160;-59
2023/03/22 02:30:59;;;;;;;;;;;;;;;;;;5055170;28;7186;-59
2023/03/22 02:33:26;;;;;;;;;;;;;;;;;;5055148;28;7065;-60
2023/03/22 02:35:55;;;;;;;;;;;;;;;;;;5056054;28;7161;-60
2023/03/22 02:38:29;;;;;;;;;;;;;;;;;;5054511;28;7236;-60
2023/03/22 02:41:19;;;;;;;;;;;;;;;;;;5055108;28;7502;-60
2023/03/22 02:44:03;;;;;;;;;;;;;;;;;;5055400;28;7226;-60
2023/03/22 02:46:42;;;;;;;;;;;;;;;;;;5054899;28;7188;-60
2023/03/22 02:49:28;;;;;;;;;;;;;;;;;;5054870;28;7377;-60
2023/03/22 02:52:00;;;;;;;;;;;;;;;;;;5055410;28;7048;-60
2023/03/22 02:54:42;;;;;;;;;;;;;;;;;;5055573;28;6941;-60
2023/03/22 02:57:13;;;;;;;;;;;;;;;;;;5054909;28;7184;-60
2023/03/22 03:02:18;;;;;;;;;;;;;;;;;;5135114;23;6741;-95
2023/03/22 03:04:48;;;;;;;;;;;;;;;;;;5069576;28;8449;-95
2023/03/22 03:07:19;;;;;;;;;;;;;;;;;;5070010;28;6828;-95
2023/03/22 03:09:46;;;;;;;;;;;;;;;;;;5071521;28;6851;-94
2023/03/22 03:12:20;;;;;;;;;;;;;;;;;;5070502;28;6863;-94
2023/03/22 03:14:46;;;;;;;;;;;;;;;;;;5070587;28;7167;-94
2023/03/22 03:17:27;;;;;;;;;;;;;;;;;;5070355;28;7050;-95
2023/03/22 03:20:06;;;;;;;;;;;;;;;;;;5070062;28;6838;-95
2023/03/22 03:22:44;;;;;;;;;;;;;;;;;;5070579;28;7007;-94
2023/03/22 03:25:18;;;;;;;;;;;;;;;;;;5069858;28;6830;-96
2023/03/22 03:27:51;;;;;;;;;;;;;;;;;;5070546;28;6854;-93
2023/03/22 03:30:26;;;;;;;;;;;;;;;;;;5070483;28;6849;-96
2023/03/22 03:32:58;;;;;;;;;;;;;;;;;;5071000;28;7010;-95
2023/03/22 03:35:31;;;;;;;;;;;;;;;;;;5069914;28;6881;-96
2023/03/22 03:38:08;;;;;;;;;;;;;;;;;;5070326;28;7260;-95
2023/03/22 03:40:54;;;;;;;;;;;;;;;;;;5070067;28;7088;-95
2023/03/22 03:43:21;;;;;;;;;;;;;;;;;;5069892;28;7012;-95
2023/03/22 03:45:47;;;;;;;;;;;;;;;;;;5060258;28;6838;-94
2023/03/22 03:48:21;;;;;;;;;;;;;;;;;;5054922;28;6900;-95
2023/03/22 03:50:49;;;;;;;;;;;;;;;;;;5056538;28;7011;-95
2023/03/22 03:53:15;;;;;;;;;;;;;;;;;;5064815;28;6959;-96
2023/03/22 03:56:04;;;;;;;;;;;;;;;;;;5069347;28;6991;-94
2023/03/22 03:58:29;;;;;;;;;;;;;;;;;;5072378;28;6860;-95
2023/03/22 04:00:55;;;;;;;;;;;;;;;;;;5076562;28;6983;-95
2023/03/22 04:03:21;;;;;;;;;;;;;;;;;;5089073;28;6838;-95
2023/03/22 04:05:47;;;;;;;;;;;;;;;;;;5073016;28;7070;-93
2023/03/22 04:08:13;;;;;;;;;;;;;;;;;;5087135;28;7965;-96
2023/03/22 04:10:39;;;;;;;;;;;;;;;;;;5068936;28;7335;-95
2023/03/22 04:13:05;;;;;;;;;;;;;;;;;;5069116;28;7042;-94
2023/03/22 04:15:31;;;;;;;;;;;;;;;;;;5070293;28;8718;-96
2023/03/22 04:17:57;;;;;;;;;;;;;;;;;;5069537;28;6961;-93
2023/03/22 04:20:25;;;;;;;;;;;;;;;;;;5067190;28;7070;-94
2023/03/22 04:22:51;;;;;;;;;;;;;;;;;;5067379;28;6979;-96
2023/03/22 04:25:18;;;;;;;;;;;;;;;;;;5033803;28;8319;-94
2023/03/22 04:27:49;;;;;;;;;;;;;;;;;;5065439;28;6834;-95
2023/03/22 04:30:17;;;;;;;;;;;;;;;;;;5066277;28;6834;-95
2023/03/22 04:32:44;;;;;;;;;;;;;;;;;;5065979;28;6835;-96
2023/03/22 04:35:10;;;;;;;;;;;;;;;;;;5065893;28;6911;-95
2023/03/22 04:37:36;;;;;;;;;;;;;;;;;;5066249;28;6985;-95
2023/03/22 04:40:05;;;;;;;;;;;;;;;;;;5065344;28;6960;-95
2023/03/22 04:42:32;;;;;;;;;;;;;;;;;;5065424;28;7338;-95
2023/03/22 04:44:57;;;;;;;;;;;;;;;;;;5065351;28;7086;-94
2023/03/22 04:47:25;;;;;;;;;;;;;;;;;;5065039;28;6998;-95
2023/03/22 04:49:56;;;;;;;;;;;;;;;;;;5065928;28;6832;-93
2023/03/22 04:52:25;;;;;;;;;;;;;;;;;;5066860;28;7006;-94
2023/03/22 04:54:51;;;;;;;;;;;;;;;;;;5067051;28;7303;-96
2023/03/22 04:57:16;;;;;;;;;;;;;;;;;;5066848;28;6824;-96
2023/03/22 04:59:42;;;;;;;;;;;;;;;;;;5048949;28;6836;-94
2023/03/22 05:02:08;;;;;;;;;;;;;;;;;;5048516;28;7110;-94
2023/03/22 05:04:36;;;;;;;;;;;;;;;;;;5064446;28;8398;-94
2023/03/22 05:07:02;;;;;;;;;;;;;;;;;;5048143;28;7010;-95
2023/03/22 05:09:32;;;;;;;;;;;;;;;;;;5064906;28;7020;-96
2023/03/22 05:11:57;;;;;;;;;;;;;;;;;;5065011;28;7038;-95
2023/03/22 05:14:23;;;;;;;;;;;;;;;;;;5048456;28;6815;-95
2023/03/22 05:16:49;;;;;;;;;;;;;;;;;;5064597;28;7213;-94
2023/03/22 05:19:14;;;;;;;;;;;;;;;;;;5047653;28;7232;-95
2023/03/22 05:21:42;;;;;;;;;;;;;;;;;;5064548;28;6989;-94
2023/03/22 05:24:09;;;;;;;;;;;;;;;;;;5064469;28;7114;-93
2023/03/22 05:26:36;;;;;;;;;;;;;;;;;;5064343;28;7169;-94
2023/03/22 05:29:04;;;;;;;;;;;;;;;;;;5064515;28;7238;-94
2023/03/22 05:31:33;;;;;;;;;;;;;;;;;;5064028;28;7052;-95
2023/03/22 05:34:00;;;;;;;;;;;;;;;;;;5049205;28;6836;-94
2023/03/22 05:36:28;;;;;;;;;;;;;;;;;;5043085;28;7105;-94
2023/03/22 05:38:55;;;;;;;;;;;;;;;;;;5048080;28;8674;-95
2023/03/22 05:41:21;;;;;;;;;;;;;;;;;;5058827;28;7222;-95
2023/03/22 05:43:47;;;;;;;;;;;;;;;;;;5045831;28;7063;-95
2023/03/22 05:46:13;;;;;;;;;;;;;;;;;;5051056;28;7106;-94
2023/03/22 05:48:39;;;;;;;;;;;;;;;;;;5043302;28;6834;-93
2023/03/22 05:51:09;;;;;;;;;;;;;;;;;;5026147;28;6836;-95
2023/03/22 05:53:38;;;;;;;;;;;;;;;;;;5055990;28;7036;-95
2023/03/22 05:56:03;;;;;;;;;;;;;;;;;;5037829;28;8837;-94
2023/03/22 05:58:30;;;;;;;;;;;;;;;;;;5057495;28;7200;-94
2023/03/22 06:01:06;;;;;;;;;;;;;;;;;;5043259;28;8744;-95
2023/03/22 06:03:32;;;;;;;;;;;;;;;;;;5062649;28;6871;-95
2023/03/22 06:05:58;;;;;;;;;;;;;;;;;;5061666;28;7013;-96
2023/03/22 06:08:23;;;;;;;;;;;;;;;;;;5061146;28;6823;-96
2023/03/22 06:10:53;;;;;;;;;;;;;;;;;;5039756;28;7245;-96
2023/03/22 06:13:19;;;;;;;;;;;;;;;;;;5033819;28;8411;-94
2023/03/22 06:15:46;;;;;;;;;;;;;;;;;;5041845;28;7148;-94
2023/03/22 06:18:18;;;;;;;;;;;;;;;;;;5020108;28;6842;-96
2023/03/22 06:20:44;;;;;;;;;;;;;;;;;;5050889;28;6846;-94
2023/03/22 06:23:24;;;;;;;;;;;;;;;;;;5036335;28;7038;-96
2023/03/22 06:25:50;;;;;;;;;;;;;;;;;;5058664;28;6901;-95
2023/03/22 06:28:31;;;;;;;;;;;;;;;;;;5135787;23;7068;-96
2023/03/22 06:31:04;;;;;;;;;;;;;;;;;;5054233;23;6929;-60
2023/03/22 06:33:49;;;;;;;;;;;;;;;;;;5054916;28;7209;-54
2023/03/22 06:36:14;;;;;;;;;;;;;;;;;;5055067;28;7078;-52
2023/03/22 06:38:40;;;;;;;;;;;;;;;;;;5055300;28;7311;-53
2023/03/22 06:41:11;;;;;;;;;;;;;;;;;;5054987;28;7113;-53
2023/03/22 06:43:37;;;;;;;;;;;;;;;;;;5117795;23;7189;-95
2023/03/22 06:48:35;;;;;;;;;;;;;;;;;;5076882;23;6927;-93
2023/03/22 06:51:01;;;;;;;;;;;;;;;;;;5027213;28;6911;-95
2023/03/22 06:53:35;;;;;;;;;;;;;;;;;;5034554;28;7051;-95
2023/03/22 06:56:00;;;;;;;;;;;;;;;;;;5030229;28;6804;-95
2023/03/22 06:58:26;;;;;;;;;;;;;;;;;;5010634;28;6839;-96
2023/03/22 07:00:52;;;;;;;;;;;;;;;;;;5025678;28;6999;-96
2023/03/22 07:03:17;;;;;;;;;;;;;;;;;;5025778;28;6834;-96
2023/03/22 07:05:43;;;;;;;;;;;;;;;;;;5026480;28;6957;-94
2023/03/22 07:08:09;;;;;;;;;;;;;;;;;;5026535;28;8621;-95
2023/03/22 07:10:34;;;;;;;;;;;;;;;;;;5026656;28;6804;-95
2023/03/22 07:13:01;;;;;;;;;;;;;;;;;;5026549;28;7189;-93
2023/03/22 07:15:28;;;;;;;;;;;;;;;;;;5026464;28;7165;-95
2023/03/22 07:17:53;;;;;;;;;;;;;;;;;;5026702;28;7046;-96
2023/03/22 07:20:19;;;;;;;;;;;;;;;;;;5027547;28;6969;-94
2023/03/22 07:22:47;;;;;;;;;;;;;;;;;;5027924;28;7111;-96
2023/03/22 07:25:13;;;;;;;;;;;;;;;;;;4998321;28;7057;-94
2023/03/22 07:27:39;;;;;;;;;;;;;;;;;;5030604;28;6809;-94
2023/03/22 07:30:05;;;;;;;;;;;;;;;;;;5031051;28;7222;-95
2023/03/22 07:32:31;;;;;;;;;;;;;;;;;;5031111;28;6987;-94
2023/03/22 07:34:56;;;;;;;;;;;;;;;;;;5030752;28;7378;-94
2023/03/22 07:37:21;;;;;;;;;;;;;;;;;;5031454;28;7160;-95
2023/03/22 07:39:47;;;;;;;;;;;;;;;;;;5031001;28;6845;-96
2023/03/22 07:42:13;;;;;;;;;;;;;;;;;;5031841;28;6916;-95
2023/03/22 07:44:38;;;;;;;;;;;;;;;;;;5032222;28;6977;-95
2023/03/22 07:47:04;;;;;;;;;;;;;;;;;;5031824;28;7051;-96
2023/03/22 07:49:30;;;;;;;;;;;;;;;;;;5031883;28;7016;-95
2023/03/22 07:51:56;;;;;;;;;;;;;;;;;;5033110;28;6863;-94
2023/03/22 07:54:22;;;;;;;;;;;;;;;;;;5031432;28;7049;-94
2023/03/22 07:56:48;;;;;;;;;;;;;;;;;;5031787;28;8378;-94
2023/03/22 07:59:16;;;;;;;;;;;;;;;;;;5030757;28;7080;-94
2023/03/22 08:01:42;;;;;;;;;;;;;;;;;;5029980;28;6904;-95
2023/03/22 08:04:08;;;;;;;;;;;;;;;;;;5022616;28;6991;-93
2023/03/22 08:06:35;;;;;;;;;;;;;;;;;;5018735;28;6973;-94
2023/03/22 08:09:04;;;;;;;;;;;;;;;;;;4993757;28;7519;-94
2023/03/22 08:11:30;;;;;;;;;;;;;;;;;;4993902;28;7048;-94
2023/03/22 08:13:55;;;;;;;;;;;;;;;;;;4993667;28;7209;-94
2023/03/22 08:16:21;;;;;;;;;;;;;;;;;;4994569;28;7145;-94
2023/03/22 08:18:47;;;;;;;;;;;;;;;;;;4995495;28;8526;-94
2023/03/22 08:21:13;;;;;;;;;;;;;;;;;;4994010;28;8280;-93
2023/03/22 08:23:38;;;;;;;;;;;;;;;;;;5000945;28;6971;-94
2023/03/22 08:26:04;;;;;;;;;;;;;;;;;;5029116;28;8298;-94
2023/03/22 08:28:29;;;;;;;;;;;;;;;;;;5027898;28;7209;-94
2023/03/22 08:30:55;;;;;;;;;;;;;;;;;;5029556;28;7084;-95
2023/03/22 08:33:22;;;;;;;;;;;;;;;;;;5029844;28;7086;-93
2023/03/22 08:35:49;;;;;;;;;;;;;;;;;;5028228;28;7053;-94
2023/03/22 08:38:15;;;;;;;;;;;;;;;;;;5028773;28;7002;-95
2023/03/22 08:40:41;;;;;;;;;;;;;;;;;;5029045;28;7237;-94
2023/03/22 08:43:07;;;;;;;;;;;;;;;;;;5028988;28;6873;-96
2023/03/22 08:45:32;;;;;;;;;;;;;;;;;;5028870;28;6975;-95
2023/03/22 08:47:58;;;;;;;;;;;;;;;;;;5025491;28;7038;-96
2023/03/22 08:50:25;;;;;;;;;;;;;;;;;;5025648;28;7164;-94
2023/03/22 08:52:52;;;;;;;;;;;;;;;;;;5025670;28;7154;-95
2023/03/22 08:55:18;;;;;;;;;;;;;;;;;;5009549;28;7035;-94
2023/03/22 08:57:49;;;;;;;;;;;;;;;;;;5021188;28;7202;-95
2023/03/22 09:00:17;;;;;;;;;;;;;;;;;;5140694;23;7485;-95
2023/03/22 09:05:18;;;;;;;;;;;;;;;;;;5093883;23;6875;-62
2023/03/22 09:07:44;;;;;;;;;;;;;;;;;;5016693;28;7539;-62
2023/03/22 09:10:10;;;;;;;;;;;;;;;;;;5017155;28;7345;-61
2023/03/22 09:15:38;;;;;;;;;;;;;;;;;;5016656;28;6994;-62
2023/03/22 09:18:04;;;;;;;;;;;;;;;;;;5016898;28;7694;-62
2023/03/22 09:20:29;;;;;;;;;;;;;;;;;;5016607;28;6962;-62
2023/03/22 09:25:59;;;;;;;;;;;;;;;;;;5008829;28;6692;-62
2023/03/22 09:31:27;;;;;;;;;;;;;;;;;;5016368;28;7014;-62
2023/03/22 09:33:53;;;;;;;;;;;;;;;;;;5016178;28;7638;-62
2023/03/22 09:36:19;;;;;;;;;;;;;;;;;;5016663;28;7144;-62
2023/03/22 09:42:00;;;;;;;;;;;;;;;;;;5016141;28;6929;-62
2023/03/22 09:44:38;;;;;;;;;;;;;;;;;;5031595;28;7332;-61
2023/03/22 09:47:07;;;;;;;;;;;;;;;;;;5035813;28;7094;-62
2023/03/22 09:52:38;;;;;;;;;;;;;;;;;;5015869;28;6707;-63
2023/03/22 09:55:27;;;;;;;;;;;;;;;;;;5016733;28;7009;-63
2023/03/22 10:01:02;;;;;;;;;;;;;;;;;;5039071;23;6928;-95
2023/03/22 10:03:47;;;;;;;;;;;;;;;;;;5012069;28;6992;-96
2023/03/22 10:06:21;;;;;;;;;;;;;;;;;;5052009;28;7123;-94
2023/03/22 10:08:53;;;;;;;;;;;;;;;;;;5023120;28;7245;-94
2023/03/22 10:11:19;;;;;;;;;;;;;;;;;;5012932;28;7338;-96
2023/03/22 10:13:54;;;;;;;;;;;;;;;;;;5034792;28;6826;-95
2023/03/22 10:16:27;;;;;;;;;;;;;;;;;;5029167;28;7319;-95
2023/03/22 10:18:58;;;;;;;;;;;;;;;;;;5028699;28;7186;-94
2023/03/22 10:21:25;;;;;;;;;;;;;;;;;;5027984;28;7088;-95
2023/03/22 10:24:09;;;;;;;;;;;;;;;;;;5029708;28;7219;-95
2023/03/22 10:26:35;;;;;;;;;;;;;;;;;;5011917;28;6832;-95
2023/03/22 10:29:03;;;;;;;;;;;;;;;;;;5035785;28;7319;-96
2023/03/22 10:31:30;;;;;;;;;;;;;;;;;;5040850;28;6866;-94
2023/03/22 10:34:05;;;;;;;;;;;;;;;;;;5013118;28;7478;-94
2023/03/22 10:36:33;;;;;;;;;;;;;;;;;;5020587;28;7283;-95
2023/03/22 10:39:11;;;;;;;;;;;;;;;;;;5040852;28;7196;-96
2023/03/22 10:41:41;;;;;;;;;;;;;;;;;;5047607;28;7172;-95
2023/03/22 10:44:07;;;;;;;;;;;;;;;;;;5030959;28;7020;-95
2023/03/22 10:46:37;;;;;;;;;;;;;;;;;;5022891;28;7039;-95
2023/03/22 10:49:05;;;;;;;;;;;;;;;;;;5044189;28;6891;-95
2023/03/22 10:51:47;;;;;;;;;;;;;;;;;;5036706;28;7028;-96
2023/03/22 10:54:17;;;;;;;;;;;;;;;;;;5033185;28;6858;-95
2023/03/22 10:56:42;;;;;;;;;;;;;;;;;;5045720;28;6829;-95
2023/03/22 10:59:28;;;;;;;;;;;;;;;;;;5033559;28;6916;-95
2023/03/22 11:01:54;;;;;;;;;;;;;;;;;;5028002;28;6890;-95
2023/03/22 11:04:23;;;;;;;;;;;;;;;;;;5029417;28;6867;-95
2023/03/22 11:06:50;;;;;;;;;;;;;;;;;;5027362;28;7246;-96
2023/03/22 11:09:19;;;;;;;;;;;;;;;;;;5029285;28;6833;-94
2023/03/22 11:11:59;;;;;;;;;;;;;;;;;;5027411;28;6879;-96
2023/03/22 11:14:44;;;;;;;;;;;;;;;;;;5038713;28;6854;-95
2023/03/22 11:17:13;;;;;;;;;;;;;;;;;;5033869;28;6997;-96
2023/03/22 11:19:41;;;;;;;;;;;;;;;;;;5011786;28;7330;-94
2023/03/22 11:22:32;;;;;;;;;;;;;;;;;;5027507;28;6848;-95
2023/03/22 11:24:59;;;;;;;;;;;;;;;;;;5027736;28;6858;-96
2023/03/22 11:27:32;;;;;;;;;;;;;;;;;;5044440;28;6996;-95
2023/03/22 11:30:06;;;;;;;;;;;;;;;;;;5048051;28;7443;-94
2023/03/22 11:32:36;;;;;;;;;;;;;;;;;;5034803;28;7035;-96
2023/03/22 11:35:13;;;;;;;;;;;;;;;;;;5038960;28;7070;-95
2023/03/22 11:37:43;;;;;;;;;;;;;;;;;;5048814;28;7087;-96
2023/03/22 11:40:14;;;;;;;;;;;;;;;;;;5047117;28;8367;-94
2023/03/22 11:42:40;;;;;;;;;;;;;;;;;;5047032;28;7015;-95
2023/03/22 11:45:07;;;;;;;;;;;;;;;;;;5047928;28;7133;-95
2023/03/22 11:47:37;;;;;;;;;;;;;;;;;;5048262;28;6997;-96
2023/03/22 11:50:04;;;;;;;;;;;;;;;;;;5047143;28;7181;-96
2023/03/22 11:52:30;;;;;;;;;;;;;;;;;;5046600;28;6818;-96
2023/03/22 11:55:03;;;;;;;;;;;;;;;;;;5047209;28;6824;-96
2023/03/22 11:57:32;;;;;;;;;;;;;;;;;;5046831;28;6834;-95
2023/03/22 12:00:10;;;;;;;;;;;;;;;;;;5030969;28;8640;-95
2023/03/22 12:02:49;;;;;;;;;;;;;;;;;;5027203;28;6848;-95
2023/03/22 12:05:26;;;;;;;;;;;;;;;;;;5026786;28;7239;-94
2023/03/22 12:08:18;;;;;;;;;;;;;;;;;;5035277;28;7279;-95
2023/03/22 12:10:52;;;;;;;;;;;;;;;;;;5046391;28;6825;-95
2023/03/22 12:13:20;;;;;;;;;;;;;;;;;;5026462;28;6881;-93
2023/03/22 12:15:51;;;;;;;;;;;;;;;;;;5046023;28;6924;-93
2023/03/22 12:18:30;;;;;;;;;;;;;;;;;;5036766;28;6859;-95
2023/03/22 12:21:10;;;;;;;;;;;;;;;;;;5033211;28;7024;-94
2023/03/22 12:23:37;;;;;;;;;;;;;;;;;;5001669;28;6910;-95
2023/03/22 12:26:05;;;;;;;;;;;;;;;;;;5036817;28;7271;-94
2023/03/22 12:28:39;;;;;;;;;;;;;;;;;;5039667;28;7089;-96
2023/03/22 12:31:10;;;;;;;;;;;;;;;;;;5032103;28;7042;-94
2023/03/22 12:33:42;;;;;;;;;;;;;;;;;;5031282;28;7242;-96
2023/03/22 12:36:15;;;;;;;;;;;;;;;;;;5031142;28;8423;-95
2023/03/22 12:38:48;;;;;;;;;;;;;;;;;;5037208;28;6838;-96
2023/03/22 12:41:16;;;;;;;;;;;;;;;;;;5050858;28;6879;-95
2023/03/22 12:44:20;;;;;;;;;;;;;;;;;;5033523;28;6879;-95
2023/03/22 12:46:50;;;;;;;;;;;;;;;;;;4974387;28;8886;-95
2023/03/22 12:49:34;;;;;;;;;;;;;;;;;;4975218;28;6821;-95
2023/03/22 12:52:12;;;;;;;;;;;;;;;;;;4975006;28;7170;-95
2023/03/22 12:54:38;;;;;;;;;;;;;;;;;;4973767;28;6831;-95
2023/03/22 12:57:05;;;;;;;;;;;;;;;;;;4961724;28;7115;-95
2023/03/22 12:59:34;;;;;;;;;;;;;;;;;;4982174;28;7279;-96
2023/03/22 13:02:26;;;;;;;;;;;;;;;;;;4971732;28;7015;-95
2023/03/22 13:04:53;;;;;;;;;;;;;;;;;;4955763;28;6816;-95
2023/03/22 13:07:37;;;;;;;;;;;;;;;;;;4971444;28;7488;-96
2023/03/22 13:10:25;;;;;;;;;;;;;;;;;;4975141;28;6909;-96
2023/03/22 13:13:12;;;;;;;;;;;;;;;;;;4994450;28;6896;-96
2023/03/22 13:15:55;;;;;;;;;;;;;;;;;;4995257;28;6812;-95
2023/03/22 13:18:47;;;;;;;;;;;;;;;;;;4995285;28;6929;-95
2023/03/22 13:21:18;;;;;;;;;;;;;;;;;;5018508;28;7051;-96
2023/03/22 13:23:52;;;;;;;;;;;;;;;;;;5025622;28;6903;-95
2023/03/22 13:26:19;;;;;;;;;;;;;;;;;;5024158;28;8419;-94
2023/03/22 13:29:02;;;;;;;;;;;;;;;;;;5018157;28;7128;-94
2023/03/22 13:31:40;;;;;;;;;;;;;;;;;;5012825;28;7174;-93
2023/03/22 13:34:15;;;;;;;;;;;;;;;;;;5009351;28;8956;-93
2023/03/22 13:36:48;;;;;;;;;;;;;;;;;;5009903;28;7036;-94
2023/03/22 13:39:22;;;;;;;;;;;;;;;;;;5009577;28;6848;-94
2023/03/22 13:42:00;;;;;;;;;;;;;;;;;;5009656;28;7320;-95
2023/03/22 13:44:29;;;;;;;;;;;;;;;;;;5009367;28;7246;-95
2023/03/22 13:47:02;;;;;;;;;;;;;;;;;;5021822;28;6915;-96
2023/03/22 13:49:43;;;;;;;;;;;;;;;;;;5029393;28;6993;-94
2023/03/22 13:52:23;;;;;;;;;;;;;;;;;;5029107;28;7763;-95
2023/03/22 13:54:51;;;;;;;;;;;;;;;;;;5028348;28;7013;-94
2023/03/22 13:57:36;;;;;;;;;;;;;;;;;;5027302;28;6845;-96
2023/03/22 14:00:25;;;;;;;;;;;;;;;;;;5015543;28;8326;-95
2023/03/22 14:02:52;;;;;;;;;;;;;;;;;;5016555;28;7141;-95
2023/03/22 14:05:21;;;;;;;;;;;;;;;;;;5043997;28;6875;-96
2023/03/22 14:07:51;;;;;;;;;;;;;;;;;;5048333;28;7221;-95
2023/03/22 14:10:21;;;;;;;;;;;;;;;;;;5044114;28;6838;-94
2023/03/22 14:12:46;;;;;;;;;;;;;;;;;;5015573;28;6847;-95
2023/03/22 14:15:15;;;;;;;;;;;;;;;;;;5035723;28;6958;-95
2023/03/22 14:17:48;;;;;;;;;;;;;;;;;;5012740;28;7036;-95
2023/03/22 14:20:18;;;;;;;;;;;;;;;;;;5028030;28;7185;-95
2023/03/22 14:22:47;;;;;;;;;;;;;;;;;;5027875;28;7046;-94
2023/03/22 14:25:18;;;;;;;;;;;;;;;;;;5027830;28;6855;-95
2023/03/22 14:27:44;;;;;;;;;;;;;;;;;;5028087;28;6922;-95
2023/03/22 14:30:29;;;;;;;;;;;;;;;;;;5027502;28;6841;-96
2023/03/22 14:32:58;;;;;;;;;;;;;;;;;;5027719;28;6909;-96
2023/03/22 14:35:50;;;;;;;;;;;;;;;;;;5028109;28;7244;-94
2023/03/22 14:38:18;;;;;;;;;;;;;;;;;;5023370;28;6864;-95
2023/03/22 14:40:44;;;;;;;;;;;;;;;;;;5027892;28;6851;-95
2023/03/22 14:43:16;;;;;;;;;;;;;;;;;;5028110;28;7023;-94
2023/03/22 14:45:42;;;;;;;;;;;;;;;;;;5027400;28;6843;-96
2023/03/22 14:48:22;;;;;;;;;;;;;;;;;;5029323;28;6986;-94
2023/03/22 14:50:51;;;;;;;;;;;;;;;;;;5025654;28;6841;-96
2023/03/22 14:53:19;;;;;;;;;;;;;;;;;;5042294;28;7253;-93
2023/03/22 14:55:48;;;;;;;;;;;;;;;;;;5041069;28;8580;-94
2023/03/22 14:58:15;;;;;;;;;;;;;;;;;;5033873;28;7013;-95
2023/03/22 15:00:41;;;;;;;;;;;;;;;;;;5029047;28;6864;-94
2023/03/22 15:03:14;;;;;;;;;;;;;;;;;;5039886;28;8642;-94
2023/03/22 15:05:42;;;;;;;;;;;;;;;;;;5032621;28;7425;-94
2023/03/22 15:08:13;;;;;;;;;;;;;;;;;;5037922;28;7206;-96
2023/03/22 15:10:39;;;;;;;;;;;;;;;;;;5045834;28;7102;-96
2023/03/22 15:13:07;;;;;;;;;;;;;;;;;;5028736;28;7072;-94
2023/03/22 15:15:36;;;;;;;;;;;;;;;;;;5026928;28;7301;-94
2023/03/22 15:18:03;;;;;;;;;;;;;;;;;;5027276;28;7009;-95
2023/03/22 15:20:37;;;;;;;;;;;;;;;;;;5026641;28;7046;-95
2023/03/22 15:23:12;;;;;;;;;;;;;;;;;;5016188;28;7250;-94
2023/03/22 15:25:38;;;;;;;;;;;;;;;;;;5027024;28;6868;-95
2023/03/22 15:28:07;;;;;;;;;;;;;;;;;;5026741;28;7211;-94
2023/03/22 15:30:34;;;;;;;;;;;;;;;;;;5027304;28;6845;-96
2023/03/22 15:33:07;;;;;;;;;;;;;;;;;;5028723;28;7146;-96
2023/03/22 15:35:33;;;;;;;;;;;;;;;;;;5030401;28;6927;-96
2023/03/22 15:38:02;;;;;;;;;;;;;;;;;;5031167;28;6901;-94
2023/03/22 15:40:40;;;;;;;;;;;;;;;;;;5032799;28;6842;-95
2023/03/22 15:43:18;;;;;;;;;;;;;;;;;;5030484;28;6827;-95
2023/03/22 15:46:02;;;;;;;;;;;;;;;;;;5031258;28;6839;-94
2023/03/22 15:48:28;;;;;;;;;;;;;;;;;;5031217;28;6853;-94
2023/03/22 15:50:54;;;;;;;;;;;;;;;;;;5032180;28;8589;-95
2023/03/22 15:53:30;;;;;;;;;;;;;;;;;;5033286;28;6851;-95
2023/03/22 15:55:57;;;;;;;;;;;;;;;;;;5034664;28;7070;-95
2023/03/22 15:58:28;;;;;;;;;;;;;;;;;;5032294;28;6824;-95
2023/03/22 16:01:06;;;;;;;;;;;;;;;;;;5032251;28;7015;-96
2023/03/22 16:03:41;;;;;;;;;;;;;;;;;;5046683;28;6868;-94
2023/03/22 16:06:11;;;;;;;;;;;;;;;;;;5049480;28;7065;-95
2023/03/22 16:08:36;;;;;;;;;;;;;;;;;;5013580;28;7261;-95
2023/03/22 16:11:03;;;;;;;;;;;;;;;;;;5048190;28;6813;-96
2023/03/22 16:13:29;;;;;;;;;;;;;;;;;;5035984;28;6913;-95
2023/03/22 16:15:55;;;;;;;;;;;;;;;;;;5041832;28;6975;-96
2023/03/22 16:18:21;;;;;;;;;;;;;;;;;;5050119;28;7044;-96
2023/03/22 16:20:48;;;;;;;;;;;;;;;;;;5045861;28;6814;-96
2023/03/22 16:23:16;;;;;;;;;;;;;;;;;;5038804;28;6927;-95
2023/03/22 16:25:41;;;;;;;;;;;;;;;;;;5048587;28;7080;-95
2023/03/22 16:28:11;;;;;;;;;;;;;;;;;;5031901;28;7060;-96
2023/03/22 16:30:37;;;;;;;;;;;;;;;;;;5032514;28;7236;-93
2023/03/22 16:33:03;;;;;;;;;;;;;;;;;;5044806;28;8443;-94
2023/03/22 16:35:30;;;;;;;;;;;;;;;;;;5028805;28;6887;-95
2023/03/22 16:37:55;;;;;;;;;;;;;;;;;;5037702;28;7049;-96
2023/03/22 16:40:28;;;;;;;;;;;;;;;;;;5044604;28;6824;-95
2023/03/22 16:42:54;;;;;;;;;;;;;;;;;;5025036;28;6898;-95
2023/03/22 16:45:27;;;;;;;;;;;;;;;;;;5044939;28;8355;-96
2023/03/22 16:47:54;;;;;;;;;;;;;;;;;;5032150;28;7042;-96
2023/03/22 16:50:24;;;;;;;;;;;;;;;;;;5048016;28;7059;-94
2023/03/22 16:52:50;;;;;;;;;;;;;;;;;;5049602;28;7006;-95
2023/03/22 16:55:19;;;;;;;;;;;;;;;;;;5048454;28;6847;-95
2023/03/22 16:57:44;;;;;;;;;;;;;;;;;;5031321;28;6842;-94
2023/03/22 17:00:11;;;;;;;;;;;;;;;;;;5035960;28;6845;-94
2023/03/22 17:02:37;;;;;;;;;;;;;;;;;;5010707;28;6840;-94
2023/03/22 17:05:04;;;;;;;;;;;;;;;;;;4995416;28;7129;-95
2023/03/22 17:07:31;;;;;;;;;;;;;;;;;;4997206;28;7178;-95
2023/03/22 17:09:57;;;;;;;;;;;;;;;;;;5011128;28;6867;-94
2023/03/22 17:12:24;;;;;;;;;;;;;;;;;;5007135;28;8412;-95
2023/03/22 17:14:50;;;;;;;;;;;;;;;;;;5026100;28;6826;-95
2023/03/22 17:17:17;;;;;;;;;;;;;;;;;;5015072;28;7076;-95
2023/03/22 17:19:43;;;;;;;;;;;;;;;;;;4997710;28;8690;-95
2023/03/22 17:22:09;;;;;;;;;;;;;;;;;;4999204;28;7128;-95
2023/03/22 17:24:36;;;;;;;;;;;;;;;;;;4995733;28;7470;-95
2023/03/22 17:27:03;;;;;;;;;;;;;;;;;;5003580;28;7142;-95
2023/03/22 17:29:29;;;;;;;;;;;;;;;;;;5019923;28;6898;-96
2023/03/22 17:31:54;;;;;;;;;;;;;;;;;;5022336;28;7027;-96
2023/03/22 17:34:20;;;;;;;;;;;;;;;;;;5011049;28;6833;-95
2023/03/22 17:36:47;;;;;;;;;;;;;;;;;;5012510;28;6838;-95
2023/03/22 17:39:13;;;;;;;;;;;;;;;;;;5028756;28;7124;-95
2023/03/22 17:41:39;;;;;;;;;;;;;;;;;;5021938;28;6907;-95
2023/03/22 17:44:04;;;;;;;;;;;;;;;;;;4991824;28;7016;-95
2023/03/22 17:46:30;;;;;;;;;;;;;;;;;;4997981;28;7030;-94
2023/03/22 17:48:55;;;;;;;;;;;;;;;;;;5008727;28;7402;-95
2023/03/22 17:51:21;;;;;;;;;;;;;;;;;;5010324;28;7362;-96
2023/03/22 17:53:54;;;;;;;;;;;;;;;;;;5018534;28;7057;-96
2023/03/22 17:56:20;;;;;;;;;;;;;;;;;;5021592;28;6864;-95
2023/03/22 17:58:46;;;;;;;;;;;;;;;;;;5015057;28;6868;-95
2023/03/22 18:01:12;;;;;;;;;;;;;;;;;;5011930;28;6852;-95
2023/03/22 18:03:38;;;;;;;;;;;;;;;;;;5029126;28;6940;-95
2023/03/22 18:06:08;;;;;;;;;;;;;;;;;;5013852;28;6932;-95